SBCJ/CKS METAR and TAF weather

Enter ICAO airport designator
Station Type Date Time Source
SBCJ METAR 2022/01/28 21:30 UTC NOAA

SBCJ 282130Z 00000KT 9999 FEW020 23/20 Q1010


Station Type Date Time Source
SBCJ Decoded METAR 2022/01/28 21:30 UTC NOAA

Carajas / Maraba, Brazil (SBCJ) 06-07S 050-00W
Jan 28, 2022 - 04:30 PM EST / 2022.01.28 2130 UTC
Wind: Calm:0
Visibility: greater than 7 mile(s):0
Sky conditions: mostly clear
Temperature: 73 F (23 C)
Dew Point: 68 F (20 C)
Relative Humidity: 83%
Pressure (altimeter): 29.83 in. Hg (1010 hPa)
ob: SBCJ 282130Z 00000KT 9999 FEW020 23/20 Q1010
cycle: 21

Station Type Date Time Source
SBCJ TAF 2022/01/28 18:42 UTC NOAA

TAF TAF SBCJ 281535Z 2818/2906 04010KT 7000 SCT016 FEW025TCU TX24/2818Z TN22/2824Z PROB30 2818/2821 5000 TSRA BKN013 FEW025CB
BECMG 2822/2824 9999 SCT030
RMK PGB

Example: see airport list